Time;durP1;ratioP1;P1;durP2;ratioP2;P2;SDS_P1;SDS_P2;PMS_P1;PMS_P2;Temp;Humidity;BMP_temperature;BMP_pressure;BME280_temperature;BME280_humidity;BME280_pressure;Samples;Min_cycle;Max_cycle;Signal;HPM_P1;HPM_P2
2022/05/12 00:01:54;;;;;;;6.85;6.18;;;;;;;;;;5071119;28;20031;-81
2022/05/12 00:04:20;;;;;;;7.32;5.95;;;;;;;;;;5054455;28;20107;-82
2022/05/12 00:06:46;;;;;;;6.82;5.95;;;;;;;;;;5072271;28;20510;-82
2022/05/12 00:09:11;;;;;;;7.53;5.97;;;;;;;;;;5072083;28;20021;-82
2022/05/12 00:11:36;;;;;;;6.72;6.13;;;;;;;;;;5072234;28;20019;-82
2022/05/12 00:14:02;;;;;;;6.10;5.50;;;;;;;;;;5072199;28;20150;-82
2022/05/12 00:16:27;;;;;;;6.70;6.05;;;;;;;;;;5070647;28;20044;-81
2022/05/12 00:18:52;;;;;;;6.95;6.22;;;;;;;;;;5070607;28;20024;-82
2022/05/12 00:21:18;;;;;;;6.32;5.60;;;;;;;;;;5070871;28;20447;-81
2022/05/12 00:23:56;;;;;;;8.38;6.38;;;;;;;;;;5070588;28;20039;-81
2022/05/12 00:26:22;;;;;;;6.95;6.20;;;;;;;;;;5071938;28;20029;-82
2022/05/12 00:28:47;;;;;;;7.80;5.75;;;;;;;;;;5070693;28;20021;-82
2022/05/12 00:31:13;;;;;;;8.40;6.88;;;;;;;;;;5070372;28;20028;-82
2022/05/12 00:33:38;;;;;;;6.88;6.28;;;;;;;;;;5071742;28;20043;-81
2022/05/12 00:36:03;;;;;;;7.18;6.47;;;;;;;;;;5070335;28;20086;-81
2022/05/12 00:38:29;;;;;;;8.35;6.45;;;;;;;;;;5071841;28;20031;-81
2022/05/12 00:40:54;;;;;;;7.53;5.88;;;;;;;;;;5071854;28;20039;-82
2022/05/12 00:43:32;;;;;;;7.13;6.53;;;;;;;;;;5072063;28;20023;-82
2022/05/12 00:45:57;;;;;;;7.72;6.07;;;;;;;;;;5070809;28;20027;-81
2022/05/12 00:48:22;;;;;;;7.30;6.60;;;;;;;;;;5070118;28;20017;-82
2022/05/12 00:50:48;;;;;;;8.52;6.82;;;;;;;;;;5071399;28;20021;-82
2022/05/12 00:53:15;;;;;;;7.55;6.70;;;;;;;;;;5071336;28;20513;-81
2022/05/12 00:55:42;;;;;;;6.75;6.15;;;;;;;;;;5071662;28;20012;-81
2022/05/12 00:58:08;;;;;;;6.95;6.25;;;;;;;;;;5069596;28;20052;-82
2022/05/12 01:00:35;;;;;;;6.80;6.20;;;;;;;;;;5071016;28;20037;-82
2022/05/12 01:03:02;;;;;;;6.47;5.93;;;;;;;;;;5071169;28;20008;-81
2022/05/12 01:05:27;;;;;;;7.05;6.45;;;;;;;;;;5070962;28;20017;-81
2022/05/12 01:07:55;;;;;;;7.57;6.38;;;;;;;;;;5069704;28;20081;-81
2022/05/12 01:10:21;;;;;;;7.45;5.95;;;;;;;;;;5070904;28;20013;-82
2022/05/12 01:12:48;;;;;;;8.52;6.15;;;;;;;;;;5069587;28;20027;-82
2022/05/12 01:15:14;;;;;;;8.30;6.18;;;;;;;;;;5070793;28;20062;-82
2022/05/12 01:17:39;;;;;;;9.35;7.45;;;;;;;;;;5070791;28;20024;-81
2022/05/12 01:20:05;;;;;;;7.07;6.45;;;;;;;;;;5069150;28;20024;-82
2022/05/12 01:22:49;;;;;;;7.05;6.38;;;;;;;;;;5069308;28;20162;-82
2022/05/12 01:25:16;;;;;;;8.35;6.05;;;;;;;;;;5070680;28;20078;-82
2022/05/12 01:27:42;;;;;;;8.38;7.13;;;;;;;;;;5069178;28;20025;-82
2022/05/12 01:30:08;;;;;;;7.57;6.70;;;;;;;;;;5070431;28;20025;-82
2022/05/12 01:32:34;;;;;;;10.80;7.03;;;;;;;;;;5070412;28;20110;-82
2022/05/12 01:34:59;;;;;;;6.18;5.68;;;;;;;;;;5069083;28;20094;-82
2022/05/12 01:37:25;;;;;;;7.18;6.10;;;;;;;;;;5052333;28;20033;-81
2022/05/12 01:39:50;;;;;;;5.93;4.95;;;;;;;;;;5070169;28;20035;-82
2022/05/12 01:42:16;;;;;;;6.57;5.85;;;;;;;;;;5051660;28;20033;-82
2022/05/12 01:44:41;;;;;;;12.07;6.47;;;;;;;;;;5070141;28;20024;-82
2022/05/12 01:47:07;;;;;;;8.15;6.78;;;;;;;;;;5068765;28;20039;-82
2022/05/12 01:49:33;;;;;;;7.78;7.05;;;;;;;;;;5070077;28;20028;-82
2022/05/12 01:52:00;;;;;;;6.90;6.28;;;;;;;;;;5068802;28;20097;-82
2022/05/12 01:54:26;;;;;;;7.22;5.68;;;;;;;;;;5069940;28;20029;-82
2022/05/12 01:56:51;;;;;;;7.13;6.35;;;;;;;;;;5069906;28;20020;-81
2022/05/12 01:59:18;;;;;;;7.50;6.45;;;;;;;;;;5069600;28;20048;-82
2022/05/12 02:01:47;;;;;;;6.70;6.00;;;;;;;;;;5069920;28;20044;-81
2022/05/12 02:04:12;;;;;;;9.65;6.50;;;;;;;;;;5069744;28;20436;-81
2022/05/12 02:06:38;;;;;;;10.05;6.18;;;;;;;;;;5068467;28;20033;-81
2022/05/12 02:09:04;;;;;;;7.95;5.75;;;;;;;;;;5069821;28;20499;-82
2022/05/12 02:11:29;;;;;;;9.00;6.60;;;;;;;;;;5069564;28;20012;-82
2022/05/12 02:13:55;;;;;;;10.93;7.22;;;;;;;;;;5068328;28;20111;-81
2022/05/12 02:16:22;;;;;;;8.05;7.03;;;;;;;;;;5069562;28;20016;-81
2022/05/12 02:18:47;;;;;;;7.82;7.03;;;;;;;;;;5068116;28;20081;-82
2022/05/12 02:21:13;;;;;;;7.18;6.47;;;;;;;;;;5069643;28;20036;-82
2022/05/12 02:23:38;;;;;;;6.80;6.10;;;;;;;;;;5069389;28;20059;-82
2022/05/12 02:26:03;;;;;;;5.93;5.43;;;;;;;;;;5068027;28;20480;-81
2022/05/12 02:28:29;;;;;;;7.60;6.90;;;;;;;;;;5068063;28;20109;-82
2022/05/12 02:30:54;;;;;;;7.70;7.00;;;;;;;;;;5067981;28;20036;-82
2022/05/12 02:33:21;;;;;;;8.18;7.38;;;;;;;;;;5069333;28;20031;-81
2022/05/12 02:35:47;;;;;;;6.78;6.18;;;;;;;;;;5067975;28;20138;-82
2022/05/12 02:38:13;;;;;;;9.05;6.43;;;;;;;;;;5069355;28;20149;-82
2022/05/12 02:40:39;;;;;;;11.15;6.80;;;;;;;;;;5067877;28;20419;-82
2022/05/12 02:43:23;;;;;;;9.70;6.97;;;;;;;;;;5069200;28;20121;-81
2022/05/12 02:46:02;;;;;;;9.35;6.80;;;;;;;;;;5068271;28;20032;-81
2022/05/12 02:48:28;;;;;;;8.73;6.95;;;;;;;;;;5069490;28;20056;-82
2022/05/12 02:50:54;;;;;;;7.10;6.43;;;;;;;;;;5069280;28;20568;-81
2022/05/12 02:53:19;;;;;;;8.68;7.22;;;;;;;;;;5068488;28;20168;-81
2022/05/12 02:55:45;;;;;;;11.35;7.07;;;;;;;;;;5068948;28;20020;-81
2022/05/12 02:58:11;;;;;;;7.72;6.80;;;;;;;;;;5068916;28;20040;-82
2022/05/12 03:00:37;;;;;;;6.82;6.15;;;;;;;;;;5069062;28;20036;-81
2022/05/12 03:03:03;;;;;;;7.28;6.57;;;;;;;;;;5069379;28;20024;-81
2022/05/12 03:05:28;;;;;;;13.80;6.97;;;;;;;;;;5069086;28;20155;-82
2022/05/12 03:07:54;;;;;;;8.05;6.70;;;;;;;;;;5067829;28;20032;-81
2022/05/12 03:10:20;;;;;;;32.30;8.00;;;;;;;;;;5069032;28;20028;-81
2022/05/12 03:12:46;;;;;;;8.68;6.82;;;;;;;;;;5068955;28;20502;-81
2022/05/12 03:15:14;;;;;;;7.35;6.65;;;;;;;;;;5068992;28;20103;-82
2022/05/12 03:17:39;;;;;;;7.40;6.68;;;;;;;;;;5068964;28;20025;-81
2022/05/12 03:20:06;;;;;;;8.35;7.65;;;;;;;;;;5067598;28;20035;-82
2022/05/12 03:22:31;;;;;;;9.13;7.38;;;;;;;;;;5067424;28;20488;-81
2022/05/12 03:24:57;;;;;;;8.38;7.57;;;;;;;;;;5067427;28;20041;-82
2022/05/12 03:27:23;;;;;;;8.57;7.82;;;;;;;;;;5050933;28;20039;-81
2022/05/12 03:29:48;;;;;;;8.80;7.82;;;;;;;;;;5050623;28;20107;-82
2022/05/12 03:32:13;;;;;;;11.65;8.93;;;;;;;;;;5069083;28;20039;-82
2022/05/12 03:34:39;;;;;;;12.15;8.88;;;;;;;;;;5067512;28;20021;-82
2022/05/12 03:37:06;;;;;;;11.43;10.15;;;;;;;;;;5068660;28;20462;-82
2022/05/12 03:39:31;;;;;;;12.38;9.68;;;;;;;;;;5068691;28;20033;-82
2022/05/12 03:41:57;;;;;;;10.40;9.13;;;;;;;;;;5067432;28;20025;-82
2022/05/12 03:47:06;;;;;;;8.35;7.30;;;;;;;;;;5068968;28;20066;-82
2022/05/12 03:49:31;;;;;;;9.48;7.47;;;;;;;;;;5068760;28;20009;-82
2022/05/12 03:51:57;;;;;;;7.63;6.93;;;;;;;;;;5067251;28;20086;-82
2022/05/12 03:54:23;;;;;;;8.55;6.68;;;;;;;;;;5067403;28;20402;-82
2022/05/12 03:56:48;;;;;;;8.15;7.32;;;;;;;;;;5068611;28;20024;-82
2022/05/12 03:59:14;;;;;;;8.93;7.40;;;;;;;;;;5068288;28;20051;-82
2022/05/12 04:01:39;;;;;;;10.93;8.05;;;;;;;;;;5067148;28;20077;-82
2022/05/12 04:04:04;;;;;;;9.18;8.23;;;;;;;;;;5066909;28;20013;-82
2022/05/12 04:06:30;;;;;;;11.90;8.90;;;;;;;;;;5071737;28;20034;-82
2022/05/12 04:08:55;;;;;;;11.48;8.98;;;;;;;;;;5070891;28;20017;-82
2022/05/12 04:11:20;;;;;;;10.23;8.93;;;;;;;;;;5072058;28;20495;-82
2022/05/12 04:13:46;;;;;;;10.25;8.20;;;;;;;;;;5072086;28;20099;-81
2022/05/12 04:16:11;;;;;;;10.02;9.02;;;;;;;;;;5072159;28;20483;-82
2022/05/12 04:18:37;;;;;;;8.85;7.97;;;;;;;;;;5071833;28;20027;-81
2022/05/12 04:21:02;;;;;;;9.27;8.38;;;;;;;;;;5071982;28;20086;-82
2022/05/12 04:23:28;;;;;;;9.90;8.43;;;;;;;;;;5070835;28;20494;-82
2022/05/12 04:25:53;;;;;;;9.02;8.05;;;;;;;;;;5071908;28;20380;-82
2022/05/12 04:28:19;;;;;;;10.77;8.65;;;;;;;;;;5072063;28;20016;-82
2022/05/12 04:30:45;;;;;;;10.55;8.40;;;;;;;;;;5071352;28;20050;-82
2022/05/12 04:35:54;;;;;;;13.90;8.90;;;;;;;;;;5071760;28;20063;-81
2022/05/12 04:38:19;;;;;;;11.63;9.77;;;;;;;;;;5071732;28;20044;-82
2022/05/12 04:40:45;;;;;;;10.10;9.13;;;;;;;;;;5071594;28;20028;-82
2022/05/12 04:43:10;;;;;;;9.90;8.88;;;;;;;;;;5071726;28;20062;-82
2022/05/12 04:45:36;;;;;;;10.90;9.80;;;;;;;;;;5070095;28;20033;-81
2022/05/12 04:48:04;;;;;;;12.80;11.05;;;;;;;;;;5071662;28;20080;-82
2022/05/12 04:50:31;;;;;;;12.63;11.18;;;;;;;;;;5070201;28;20100;-81
2022/05/12 04:52:57;;;;;;;12.55;10.68;;;;;;;;;;5071370;28;20012;-82
2022/05/12 04:55:22;;;;;;;14.38;12.95;;;;;;;;;;5070206;28;20392;-81
2022/05/12 04:57:49;;;;;;;14.45;12.57;;;;;;;;;;5071071;28;20048;-82
2022/05/12 05:00:25;;;;;;;13.18;11.65;;;;;;;;;;5071053;28;20029;-81
2022/05/12 05:02:51;;;;;;;14.98;11.88;;;;;;;;;;5071470;28;20092;-82
2022/05/12 05:05:17;;;;;;;12.10;10.90;;;;;;;;;;5071198;28;20486;-81
2022/05/12 05:07:42;;;;;;;14.45;12.40;;;;;;;;;;5069860;28;20063;-80
2022/05/12 05:10:08;;;;;;;15.52;12.32;;;;;;;;;;5071223;28;20480;-81
2022/05/12 05:12:34;;;;;;;16.15;11.73;;;;;;;;;;5071272;28;20114;-80
2022/05/12 05:14:59;;;;;;;14.25;11.63;;;;;;;;;;5069769;28;20107;-82
2022/05/12 05:17:25;;;;;;;12.20;11.05;;;;;;;;;;5069287;28;20089;-81
2022/05/12 05:19:51;;;;;;;11.20;10.00;;;;;;;;;;5071096;28;20519;-82
2022/05/12 05:22:16;;;;;;;12.65;10.95;;;;;;;;;;5071141;28;20069;-81
2022/05/12 05:24:42;;;;;;;12.10;11.10;;;;;;;;;;5070014;28;20017;-81
2022/05/12 05:27:07;;;;;;;11.27;10.18;;;;;;;;;;5069831;28;20027;-81
2022/05/12 05:29:33;;;;;;;13.85;11.18;;;;;;;;;;5070704;28;20016;-82
2022/05/12 05:31:58;;;;;;;15.20;12.75;;;;;;;;;;5070435;28;20040;-81
2022/05/12 05:34:24;;;;;;;13.35;11.95;;;;;;;;;;5070194;28;20031;-81
2022/05/12 05:36:49;;;;;;;13.30;12.00;;;;;;;;;;5070188;28;20103;-82
2022/05/12 05:39:26;;;;;;;11.13;9.82;;;;;;;;;;5069895;28;20389;-82
2022/05/12 05:41:52;;;;;;;11.02;9.93;;;;;;;;;;5068935;28;20024;-82
2022/05/12 05:44:18;;;;;;;12.27;10.93;;;;;;;;;;5068918;28;20028;-81
2022/05/12 05:46:43;;;;;;;11.05;9.30;;;;;;;;;;5070233;28;20483;-82
2022/05/12 05:49:09;;;;;;;10.68;9.57;;;;;;;;;;5070034;28;20017;-82
2022/05/12 05:54:18;;;;;;;7.30;6.70;;;;;;;;;;5069949;28;20403;-82
2022/05/12 05:56:43;;;;;;;7.97;7.20;;;;;;;;;;5070014;28;20028;-82
2022/05/12 05:59:09;;;;;;;7.70;6.90;;;;;;;;;;5069746;28;20135;-82
2022/05/12 06:01:34;;;;;;;6.95;6.28;;;;;;;;;;5069934;28;20047;-81
2022/05/12 06:03:59;;;;;;;9.10;6.15;;;;;;;;;;5068578;28;20028;-81
2022/05/12 06:06:25;;;;;;;7.25;6.28;;;;;;;;;;5068369;28;20024;-81
2022/05/12 06:08:50;;;;;;;6.80;5.88;;;;;;;;;;5068462;28;20032;-82
2022/05/12 06:11:16;;;;;;;6.30;5.70;;;;;;;;;;5069698;28;20605;-82
2022/05/12 06:13:42;;;;;;;5.82;5.32;;;;;;;;;;5069606;28;20047;-82
2022/05/12 06:16:08;;;;;;;5.93;5.38;;;;;;;;;;5069602;28;20398;-82
2022/05/12 06:18:36;;;;;;;5.45;4.95;;;;;;;;;;5068231;28;20119;-82
2022/05/12 06:21:04;;;;;;;5.30;4.90;;;;;;;;;;5069423;28;20415;-82
2022/05/12 06:23:29;;;;;;;4.88;4.47;;;;;;;;;;5069468;28;20476;-81
2022/05/12 06:25:55;;;;;;;7.00;4.20;;;;;;;;;;5069392;28;20069;-82
2022/05/12 06:28:20;;;;;;;5.82;4.35;;;;;;;;;;5069230;28;20017;-81
2022/05/12 06:30:45;;;;;;;5.40;4.22;;;;;;;;;;5067992;28;20031;-82
2022/05/12 06:33:15;;;;;;;10.30;3.88;;;;;;;;;;5068019;28;20483;-83
2022/05/12 06:35:41;;;;;;;7.68;4.22;;;;;;;;;;5069800;28;20008;-81
2022/05/12 06:38:06;;;;;;;4.15;3.75;;;;;;;;;;5069284;28;20471;-82
2022/05/12 06:40:32;;;;;;;3.90;3.60;;;;;;;;;;5067792;28;20036;-81
2022/05/12 06:42:58;;;;;;;3.90;3.50;;;;;;;;;;5069100;28;20024;-82
2022/05/12 06:45:23;;;;;;;4.10;3.70;;;;;;;;;;5069193;28;20536;-81
2022/05/12 06:47:52;;;;;;;3.63;3.33;;;;;;;;;;5067863;28;20021;-81
2022/05/12 06:50:23;;;;;;;4.13;3.80;;;;;;;;;;5069404;28;20040;-81
2022/05/12 06:52:49;;;;;;;6.38;3.30;;;;;;;;;;5067817;28;20028;-81
2022/05/12 06:55:14;;;;;;;4.28;3.88;;;;;;;;;;5068978;28;20392;-82
2022/05/12 06:57:41;;;;;;;5.38;3.78;;;;;;;;;;5068841;28;20024;-81
2022/05/12 07:00:08;;;;;;;6.80;4.03;;;;;;;;;;5069001;28;20458;-82
2022/05/12 07:02:34;;;;;;;5.32;3.72;;;;;;;;;;5068849;28;20107;-81
2022/05/12 07:04:59;;;;;;;3.92;3.63;;;;;;;;;;5068960;28;20535;-81
2022/05/12 07:07:25;;;;;;;4.05;3.17;;;;;;;;;;5067682;28;20020;-81
2022/05/12 07:09:54;;;;;;;3.60;3.30;;;;;;;;;;5067719;28;20024;-82
2022/05/12 07:12:26;;;;;;;4.47;3.80;;;;;;;;;;5069026;28;20032;-82
2022/05/12 07:14:52;;;;;;;3.20;3.00;;;;;;;;;;5067667;28;20044;-81
2022/05/12 07:17:19;;;;;;;4.18;3.28;;;;;;;;;;5068857;28;20019;-82
2022/05/12 07:19:44;;;;;;;4.13;3.63;;;;;;;;;;5068797;28;20024;-82
2022/05/12 07:27:38;;;;;;;6.72;3.25;;;;;;;;;;5068904;28;20074;-82
2022/05/12 07:30:03;;;;;;;4.07;3.10;;;;;;;;;;5068932;28;20020;-82
2022/05/12 07:32:29;;;;;;;3.40;3.10;;;;;;;;;;5068862;28;20025;-80
2022/05/12 07:34:54;;;;;;;3.53;3.22;;;;;;;;;;5067518;28;20029;-81
2022/05/12 07:37:20;;;;;;;3.72;3.33;;;;;;;;;;5069027;28;20024;-84
2022/05/12 07:39:45;;;;;;;3.40;3.10;;;;;;;;;;5068053;28;20072;-81
2022/05/12 07:42:10;;;;;;;3.45;3.13;;;;;;;;;;5071519;28;20035;-82
2022/05/12 07:44:37;;;;;;;4.63;3.30;;;;;;;;;;5072806;28;20009;-82
2022/05/12 07:47:09;;;;;;;3.75;2.97;;;;;;;;;;5072747;28;20013;-83
2022/05/12 07:49:36;;;;;;;6.45;3.50;;;;;;;;;;5072699;28;20024;-83
2022/05/12 07:52:03;;;;;;;3.72;3.40;;;;;;;;;;5071200;28;20040;-81
2022/05/12 07:54:28;;;;;;;3.58;3.00;;;;;;;;;;5072498;28;20024;-83
2022/05/12 07:56:54;;;;;;;3.35;3.05;;;;;;;;;;5072504;28;20501;-82
2022/05/12 07:59:19;;;;;;;5.30;3.40;;;;;;;;;;5072224;28;20081;-82
2022/05/12 08:01:45;;;;;;;3.63;3.25;;;;;;;;;;5071008;28;20056;-81
2022/05/12 08:04:11;;;;;;;4.82;3.13;;;;;;;;;;5072282;28;20028;-81
2022/05/12 08:06:36;;;;;;;3.42;3.13;;;;;;;;;;5072154;28;20032;-81
2022/05/12 08:09:02;;;;;;;4.70;3.40;;;;;;;;;;5070729;28;20573;-81
2022/05/12 08:11:27;;;;;;;4.07;3.22;;;;;;;;;;5072113;28;20291;-83
2022/05/12 08:13:53;;;;;;;3.97;3.17;;;;;;;;;;5070904;28;20100;-81
2022/05/12 08:16:20;;;;;;;8.32;3.10;;;;;;;;;;5072126;28;20494;-83
2022/05/12 08:18:49;;;;;;;4.43;3.00;;;;;;;;;;5053939;28;20035;-81
2022/05/12 08:21:15;;;;;;;3.78;3.20;;;;;;;;;;5070506;28;20052;-81
2022/05/12 08:23:40;;;;;;;3.33;3.03;;;;;;;;;;5070577;28;20070;-80
2022/05/12 08:26:06;;;;;;;3.45;3.00;;;;;;;;;;5071912;28;20399;-82
2022/05/12 08:28:32;;;;;;;4.20;3.28;;;;;;;;;;5071940;28;20035;-81
2022/05/12 08:30:57;;;;;;;3.60;3.03;;;;;;;;;;5072017;28;20471;-79
2022/05/12 08:33:23;;;;;;;7.20;3.30;;;;;;;;;;5071773;28;20112;-81
2022/05/12 08:35:48;;;;;;;3.78;3.17;;;;;;;;;;5071608;28;20023;-81
2022/05/12 08:38:15;;;;;;;5.53;2.92;;;;;;;;;;5071712;28;20028;-80
2022/05/12 08:41:01;;;;;;;3.45;2.85;;;;;;;;;;5071548;28;20039;-78
2022/05/12 08:43:38;;;;;;;4.47;3.05;;;;;;;;;;5066264;28;20028;-81
2022/05/12 08:46:09;;;;;;;7.25;3.00;;;;;;;;;;5071435;28;20024;-81
2022/05/12 08:48:37;;;;;;;4.35;2.95;;;;;;;;;;5070077;28;20029;-82
2022/05/12 08:51:03;;;;;;;3.08;2.88;;;;;;;;;;5070582;28;20507;-81
2022/05/12 08:53:32;;;;;;;4.15;2.80;;;;;;;;;;5071045;28;20024;-80
2022/05/12 08:55:59;;;;;;;5.40;3.13;;;;;;;;;;5071400;28;20020;-80
2022/05/12 08:58:28;;;;;;;2.53;2.35;;;;;;;;;;5070992;28;20055;-81
2022/05/12 09:00:56;;;;;;;3.88;3.08;;;;;;;;;;5071171;28;20099;-80
2022/05/12 09:03:25;;;;;;;5.50;2.70;;;;;;;;;;5071293;28;20028;-80
2022/05/12 09:06:04;;;;;;;7.53;2.80;;;;;;;;;;5071439;28;20028;-80
2022/05/12 09:08:50;;;;;;;3.13;2.70;;;;;;;;;;5069813;28;20037;-82
2022/05/12 09:11:34;;;;;;;2.97;2.67;;;;;;;;;;5071119;28;20021;-80
2022/05/12 09:14:00;;;;;;;5.68;2.90;;;;;;;;;;5071117;28;20021;-81
2022/05/12 09:16:25;;;;;;;3.38;3.08;;;;;;;;;;5071055;28;20495;-81
2022/05/12 09:18:53;;;;;;;4.45;2.90;;;;;;;;;;5069586;28;20052;-81
2022/05/12 09:21:26;;;;;;;4.43;2.85;;;;;;;;;;5070762;28;20024;-81
2022/05/12 09:23:52;;;;;;;4.03;3.08;;;;;;;;;;5069475;28;20029;-81
2022/05/12 09:26:33;;;;;;;6.18;2.60;;;;;;;;;;5069423;28;20043;-81
2022/05/12 09:29:10;;;;;;;4.68;2.70;;;;;;;;;;5070690;28;20024;-81
2022/05/12 09:31:36;;;;;;;5.22;2.83;;;;;;;;;;5069387;28;20024;-81
2022/05/12 09:34:13;;;;;;;4.72;2.70;;;;;;;;;;5070547;28;20017;-81
2022/05/12 09:36:39;;;;;;;2.97;2.67;;;;;;;;;;5070671;28;20017;-81
2022/05/12 09:39:04;;;;;;;3.35;3.05;;;;;;;;;;5070753;28;20119;-80
2022/05/12 09:41:40;;;;;;;4.10;2.85;;;;;;;;;;5069201;28;20028;-80
2022/05/12 09:44:21;;;;;;;4.60;2.80;;;;;;;;;;5070235;28;20044;-80
2022/05/12 09:46:59;;;;;;;3.03;2.47;;;;;;;;;;5070410;28;20020;-82
2022/05/12 09:49:30;;;;;;;4.43;2.78;;;;;;;;;;5070326;28;20055;-80
2022/05/12 09:51:56;;;;;;;4.20;2.83;;;;;;;;;;5070371;28;20028;-81
2022/05/12 09:54:26;;;;;;;3.28;2.70;;;;;;;;;;5070289;28;20215;-81
2022/05/12 09:57:04;;;;;;;2.63;2.42;;;;;;;;;;5070458;28;20443;-82
2022/05/12 09:59:31;;;;;;;5.88;2.53;;;;;;;;;;5069946;28;20609;-84
2022/05/12 10:01:58;;;;;;;12.10;2.85;;;;;;;;;;5070222;28;20100;-81
2022/05/12 10:10:15;;;;;;;2.95;2.58;;;;;;;;;;5070741;28;20108;-85
2022/05/12 10:12:47;;;;;;;2.47;2.30;;;;;;;;;;5070623;28;20028;-82
2022/05/12 10:15:26;;;;;;;5.75;2.72;;;;;;;;;;5070672;28;20078;-83
2022/05/12 10:18:03;;;;;;;2.65;2.45;;;;;;;;;;5073921;28;20024;-82
2022/05/12 10:20:29;;;;;;;2.40;2.20;;;;;;;;;;5073951;28;20036;-82
2022/05/12 10:22:55;;;;;;;3.83;2.83;;;;;;;;;;5071941;28;20044;-83
2022/05/12 10:25:33;;;;;;;5.97;2.63;;;;;;;;;;5071672;28;20016;-82
2022/05/12 10:28:13;;;;;;;4.43;2.55;;;;;;;;;;5069508;28;20055;-82
2022/05/12 10:30:39;;;;;;;2.85;2.45;;;;;;;;;;5069269;28;20507;-83
2022/05/12 10:33:23;;;;;;;3.00;2.60;;;;;;;;;;5069359;28;20028;-82
2022/05/12 10:36:04;;;;;;;8.40;2.40;;;;;;;;;;5067951;28;20048;-83
2022/05/12 10:38:35;;;;;;;3.65;2.30;;;;;;;;;;5069298;28;20059;-82
2022/05/12 10:41:24;;;;;;;2.85;2.50;;;;;;;;;;5067795;28;20037;-83
2022/05/12 10:43:50;;;;;;;;;;;;;;;;;;5067580;28;20049;-82
2022/05/12 10:46:48;;;;;;;5.80;2.20;;;;;;;;;;5069218;28;19973;-82
2022/05/12 10:49:13;;;;;;;5.07;2.55;;;;;;;;;;5067579;28;20028;-81
2022/05/12 10:51:51;;;;;;;4.07;2.65;;;;;;;;;;5069165;28;20031;-83
2022/05/12 10:54:25;;;;;;;3.30;2.20;;;;;;;;;;5067651;28;20029;-81
2022/05/12 10:56:54;;;;;;;2.28;1.95;;;;;;;;;;5069325;28;20535;-82
2022/05/12 10:59:26;;;;;;;2.25;2.00;;;;;;;;;;5068750;28;20063;-82
2022/05/12 11:02:02;;;;;;;3.50;2.58;;;;;;;;;;5069043;28;20039;-81
2022/05/12 11:04:38;;;;;;;3.40;2.10;;;;;;;;;;5067679;28;20024;-81
2022/05/12 11:07:11;;;;;;;2.85;2.60;;;;;;;;;;5068879;28;20013;-81
2022/05/12 11:09:39;;;;;;;2.28;2.00;;;;;;;;;;5067657;28;20535;-81
2022/05/12 11:12:13;;;;;;;2.47;1.92;;;;;;;;;;5069055;28;20130;-81
2022/05/12 11:14:40;;;;;;;3.08;2.42;;;;;;;;;;5068140;28;20466;-81
2022/05/12 11:17:09;;;;;;;2.58;2.33;;;;;;;;;;5068902;28;20017;-82
2022/05/12 11:19:35;;;;;;;4.53;2.35;;;;;;;;;;5068723;28;20372;-82
2022/05/12 11:22:09;;;;;;;4.55;2.58;;;;;;;;;;5068894;28;20474;-82
2022/05/12 11:24:35;;;;;;;4.95;2.60;;;;;;;;;;5067469;28;20027;-83
2022/05/12 11:27:14;;;;;;;5.35;2.30;;;;;;;;;;5068987;28;20407;-82
2022/05/12 11:29:48;;;;;;;2.70;2.10;;;;;;;;;;5067413;28;20043;-81
2022/05/12 11:32:29;;;;;;;3.20;1.83;;;;;;;;;;5067448;28;20016;-84
2022/05/12 11:34:56;;;;;;;2.65;2.45;;;;;;;;;;5067543;28;20383;-81
2022/05/12 11:37:27;;;;;;;3.78;2.50;;;;;;;;;;5068713;28;20017;-83
2022/05/12 11:39:54;;;;;;;3.17;2.30;;;;;;;;;;5068563;28;20679;-83
2022/05/12 11:42:21;;;;;;;2.40;2.08;;;;;;;;;;5068619;28;20016;-83
2022/05/12 11:44:57;;;;;;;4.00;2.00;;;;;;;;;;5068579;28;20087;-81
2022/05/12 11:47:22;;;;;;;3.30;2.25;;;;;;;;;;5068720;28;20021;-83
2022/05/12 11:49:54;;;;;;;2.10;2.00;;;;;;;;;;5068709;28;20032;-82
2022/05/12 11:52:19;;;;;;;4.18;2.08;;;;;;;;;;5068507;28;20024;-83
2022/05/12 11:54:50;;;;;;;5.88;2.05;;;;;;;;;;5068403;28;20391;-81
2022/05/12 11:57:24;;;;;;;2.35;2.15;;;;;;;;;;5067155;28;20020;-81
2022/05/12 11:59:53;;;;;;;4.28;2.33;;;;;;;;;;5068229;28;20053;-82
2022/05/12 12:02:28;;;;;;;5.50;2.47;;;;;;;;;;5068460;28;20550;-82
2022/05/12 12:04:54;;;;;;;4.72;1.88;;;;;;;;;;5067117;28;20142;-86
2022/05/12 12:07:32;;;;;;;1.88;1.77;;;;;;;;;;5067048;28;20025;-82
2022/05/12 12:10:16;;;;;;;23.35;2.50;;;;;;;;;;5068379;28;20130;-81
2022/05/12 12:12:42;;;;;;;5.45;2.40;;;;;;;;;;5068260;28;20024;-81
2022/05/12 12:15:33;;;;;;;3.83;2.58;;;;;;;;;;5066966;28;20066;-81
2022/05/12 12:18:00;;;;;;;2.35;2.08;;;;;;;;;;5067655;28;20127;-83
2022/05/12 12:20:28;;;;;;;3.70;2.13;;;;;;;;;;5068120;28;20036;-83
2022/05/12 12:22:53;;;;;;;4.25;2.20;;;;;;;;;;5068292;28;20020;-82
2022/05/12 12:25:26;;;;;;;3.83;2.35;;;;;;;;;;5068274;28;20071;-82
2022/05/12 12:27:57;;;;;;;2.55;2.35;;;;;;;;;;5071866;28;20025;-83
2022/05/12 12:30:24;;;;;;;2.55;2.10;;;;;;;;;;5071772;28;20502;-82
2022/05/12 12:33:08;;;;;;;4.45;2.17;;;;;;;;;;5071586;28;20043;-83
2022/05/12 12:35:49;;;;;;;2.65;1.83;;;;;;;;;;5071651;28;20028;-81
2022/05/12 12:38:33;;;;;;;2.03;1.92;;;;;;;;;;5070219;28;20029;-83
2022/05/12 12:40:59;;;;;;;5.40;2.58;;;;;;;;;;5070233;28;20036;-83
2022/05/12 12:43:33;;;;;;;3.33;2.35;;;;;;;;;;5071533;28;20509;-83
2022/05/12 12:46:09;;;;;;;2.63;2.33;;;;;;;;;;5071496;28;20060;-83
2022/05/12 12:48:38;;;;;;;2.78;2.10;;;;;;;;;;5070129;28;20039;-82
2022/05/12 12:51:03;;;;;;;2.40;2.20;;;;;;;;;;5071508;28;20052;-82
2022/05/12 12:56:36;;;;;;;2.38;2.05;;;;;;;;;;5071556;28;20098;-82
2022/05/12 12:59:12;;;;;;;2.38;2.20;;;;;;;;;;5069584;28;20138;-84
2022/05/12 13:01:37;;;;;;;3.85;2.03;;;;;;;;;;5069896;28;20078;-83
2022/05/12 13:04:06;;;;;;;5.20;2.03;;;;;;;;;;5069903;28;20133;-82
2022/05/12 13:06:36;;;;;;;4.95;2.20;;;;;;;;;;5071138;28;20414;-83
2022/05/12 13:09:04;;;;;;;4.57;2.50;;;;;;;;;;5071109;28;20036;-82
2022/05/12 13:11:31;;;;;;;3.83;2.25;;;;;;;;;;5070972;28;20033;-84
2022/05/12 13:13:56;;;;;;;2.50;2.15;;;;;;;;;;5071038;28;20020;-82
2022/05/12 13:16:23;;;;;;;3.15;2.50;;;;;;;;;;5070945;28;20028;-82
2022/05/12 13:18:50;;;;;;;3.55;2.40;;;;;;;;;;5069638;28;20027;-82
2022/05/12 13:21:24;;;;;;;5.20;2.60;;;;;;;;;;5070920;28;20039;-82
2022/05/12 13:24:12;;;;;;;2.53;2.30;;;;;;;;;;5070699;28;20020;-81
2022/05/12 13:26:39;;;;;;;2.72;2.50;;;;;;;;;;5066239;28;20082;-81
2022/05/12 13:29:07;;;;;;;5.00;2.50;;;;;;;;;;5070678;28;20035;-82
2022/05/12 13:31:35;;;;;;;2.85;2.40;;;;;;;;;;5070616;28;20031;-81
2022/05/12 13:34:12;;;;;;;3.10;2.42;;;;;;;;;;5070559;28;20024;-82
2022/05/12 13:36:38;;;;;;;5.10;2.50;;;;;;;;;;5070522;28;20024;-80
2022/05/12 13:39:03;;;;;;;2.95;2.25;;;;;;;;;;5069749;28;20074;-82
2022/05/12 13:41:35;;;;;;;2.58;2.35;;;;;;;;;;5070353;28;20032;-82
2022/05/12 13:44:15;;;;;;;4.40;2.65;;;;;;;;;;5070421;28;20023;-81
2022/05/12 13:46:47;;;;;;;3.75;2.97;;;;;;;;;;5070163;28;20028;-81
2022/05/12 13:49:13;;;;;;;6.10;2.72;;;;;;;;;;5070257;28;20062;-81
2022/05/12 13:51:41;;;;;;;4.85;2.85;;;;;;;;;;5068954;28;20016;-82
2022/05/12 13:54:10;;;;;;;7.82;3.00;;;;;;;;;;5070194;28;20729;-81
2022/05/12 13:56:37;;;;;;;4.50;2.58;;;;;;;;;;5068835;28;20373;-80
2022/05/12 13:59:20;;;;;;;3.72;3.15;;;;;;;;;;5069823;28;20056;-81
2022/05/12 14:01:46;;;;;;;2.83;2.63;;;;;;;;;;5068480;28;20033;-81
2022/05/12 14:04:13;;;;;;;3.42;2.63;;;;;;;;;;5069973;28;20043;-81
2022/05/12 14:06:51;;;;;;;2.65;2.45;;;;;;;;;;5068671;28;20028;-81
2022/05/12 14:09:28;;;;;;;5.03;2.83;;;;;;;;;;5069891;28;20028;-81
2022/05/12 14:11:55;;;;;;;3.33;3.03;;;;;;;;;;5068639;28;20056;-81
2022/05/12 14:20:01;;;;;;;2.97;2.70;;;;;;;;;;5068105;28;20032;-81
2022/05/12 14:22:26;;;;;;;4.38;2.70;;;;;;;;;;5069724;28;20020;-81
2022/05/12 14:24:52;;;;;;;4.80;2.88;;;;;;;;;;5069670;28;20380;-81
2022/05/12 14:27:18;;;;;;;3.22;3.00;;;;;;;;;;5068516;28;20103;-82
2022/05/12 14:29:43;;;;;;;2.53;2.33;;;;;;;;;;5068269;28;20487;-82
2022/05/12 14:32:10;;;;;;;3.13;2.53;;;;;;;;;;5068011;28;20028;-81
2022/05/12 14:34:36;;;;;;;4.43;2.65;;;;;;;;;;5069413;28;20506;-81
2022/05/12 14:37:02;;;;;;;2.55;2.35;;;;;;;;;;5051677;28;20024;-83
2022/05/12 14:39:31;;;;;;;2.67;2.40;;;;;;;;;;5068191;28;20055;-83
2022/05/12 14:41:57;;;;;;;2.30;2.10;;;;;;;;;;5069452;28;20380;-84
2022/05/12 14:44:23;;;;;;;8.40;2.80;;;;;;;;;;5069689;28;20032;-81
2022/05/12 14:46:49;;;;;;;2.70;2.50;;;;;;;;;;5069446;28;20021;-81
2022/05/12 14:49:24;;;;;;;3.38;2.70;;;;;;;;;;5069577;28;20024;-84
2022/05/12 14:51:49;;;;;;;3.38;2.88;;;;;;;;;;5069349;28;20033;-82
2022/05/12 14:54:15;;;;;;;2.88;2.58;;;;;;;;;;5067943;28;20040;-80
2022/05/12 14:56:41;;;;;;;3.67;2.75;;;;;;;;;;5069508;28;20077;-81
2022/05/12 14:59:07;;;;;;;4.55;2.60;;;;;;;;;;5067779;28;20048;-81
2022/05/12 15:01:32;;;;;;;3.08;2.67;;;;;;;;;;5069195;28;20024;-81
2022/05/12 15:04:01;;;;;;;3.88;2.65;;;;;;;;;;5069258;28;20024;-82
2022/05/12 15:06:28;;;;;;;2.70;2.50;;;;;;;;;;5069304;28;20548;-81
2022/05/12 15:08:54;;;;;;;3.33;2.28;;;;;;;;;;5069312;28;20040;-81
2022/05/12 15:11:19;;;;;;;2.85;2.58;;;;;;;;;;5069268;28;20031;-82
2022/05/12 15:13:45;;;;;;;3.75;2.42;;;;;;;;;;5068850;28;20598;-82
2022/05/12 15:16:11;;;;;;;4.00;2.50;;;;;;;;;;5067967;28;20039;-82